Meteo Giornale » Osservazioni meteo Svizzera » Locarno

ore: 04:20 - Osservazioni Meteo Locarno
Lat. 46° 10' N Lon. 8° 53' E Alt. 600 metri s.l.m.

poco_nuvoloso Europe/Zurich

0 °C

Poco Nuvoloso

Temp. 24 Ore

-3 °C

6 °C

Est

7.4 Km/h

Dew point 0 °C

Umidità 100 %

Visibilità  10 Km

Il sole sorge alle ore 07:51

Il sole tramonta alle ore 16:40

Data e Ora Cielo e Fenomeni T °C DP °C Um. % Pres. hPa Vis. km Vento km/h
Oggi h: 04:20 poco_nuvoloso Poco Nuvoloso 0 0 100 1019 10 E 7.4
Oggi h: 03:50 poco_nuvoloso Poco Nuvoloso 1 1 100 1020 10 N 0
Oggi h: 03:20 molto_nuvoloso Molto Nuvoloso 1 0 93 1020 10 N 0
Oggi h: 02:50 molto_nuvoloso Molto Nuvoloso 1 0 93 1020 10 N 3.7
Oggi h: 02:20 molto_nuvoloso Molto Nuvoloso 0 -0 100 1020 10 N 5.5
Oggi h: 01:50 molto_nuvoloso Molto Nuvoloso 1 0 93 1020 10 N 0
Oggi h: 01:20 molto_nuvoloso Molto Nuvoloso 1 -0 93 1021 10 N 0
Oggi h: 00:50 molto_nuvoloso Molto Nuvoloso 0 0 100 1021 10 N 0
Oggi h: 00:20 nuvoloso Nuvoloso -0 -0 100 1022 10 N 0
Ieri h: 23:50 nuvoloso Nuvoloso -1 -1 100 1022 10 N 3.7
Ieri h: 23:20 poco_nuvoloso Poco Nuvoloso -0 -0 100 1022 10 N 0
Ieri h: 22:50 poco_nuvoloso Poco Nuvoloso -2 -2 100 1022 10 N 5.5
Ieri h: 22:20 poco_nuvoloso Poco Nuvoloso -1 -1 100 1022 10 N 0
Ieri h: 21:50 sereno Sereno -1 -1 100 1022 10 N 1.8
Ieri h: 21:20 sereno Sereno -2 -2 100 1022 10 N 0
Ieri h: 20:50 sereno Sereno -1 -2 92 1022 10 N 0
Ieri h: 20:20 sereno Sereno -1 -2 92 1022 10 N 0
Ieri h: 19:50 sereno Sereno -1 -1 100 1022 10 N 0
Ieri h: 18:50 sereno Sereno -0 -2 86 1022 10 N 0
Ieri h: 18:20 sereno Sereno 1 -2 80 1022 10 N 1.8
Ieri h: 17:50 sereno Sereno 1 -2 80 1022 10 N 0
Ieri h: 17:20 sereno Sereno 1 -1 86 1022 10 N 3.7
Ieri h: 16:50 sereno Sereno 2 -1 80 1022 10 N 1.8
Ieri h: 13:50 sereno Sereno 6 -1 60 1023 10 N 3.7
Ieri h: 13:20 sereno Sereno 6 -1 60 1024 10 N 3.7
Ieri h: 12:50 sereno Sereno 4 -0 75 1024 10 N 3.7
Ieri h: 12:20 sereno Sereno 4 -0 75 1025 10 N 3.7
Ieri h: 11:50 sereno Sereno 4 -1 69 1025 10 N 3.7
Ieri h: 11:20 sereno Sereno 3 0 80 1026 10 N 3.7
Ieri h: 10:50 sereno Sereno 3 0 80 1026 10 N 3.7
Ieri h: 09:20 sereno Sereno -1 -1 100 1026 10 N 0
Ieri h: 08:50 sereno Sereno -2 -2 100 1026 10 N 0
Ieri h: 07:50 sereno Sereno -2 -2 100 1026 10 N 3.7
Ieri h: 07:20 sereno Sereno -2 -2 100 1026 10 N 1.8
Ieri h: 06:50 sereno Sereno -3 -3 100 1026 9 N 3.7
Ieri h: 06:20 sereno Sereno -3 -3 100 1026 8 N 1.8
Ieri h: 05:50 sereno Sereno -2 -2 100 1026 10 N 0
Ieri h: 05:20 sereno Sereno -2 -2 100 1026 8 N 0
Ieri h: 04:50 sereno Sereno -3 -3 100 1026 10 N 0